Time;durP1;ratioP1;P1;durP2;ratioP2;P2;SDS_P1;SDS_P2;PMS_P1;PMS_P2;Temp;Humidity;BMP_temperature;BMP_pressure;BME280_temperature;BME280_humidity;BME280_pressure;Samples;Min_cycle;Max_cycle;Signal;HPM_P1;HPM_P2
2022/08/23 00:00:11;;;;;;;12.45;6.70;;;;;;;17.84;100.00;101542.31;7387572;19;20015;-75
2022/08/23 00:02:44;;;;;;;;;;;;;;;17.81;100.00;101542.34;7389444;19;20019;-75
2022/08/23 00:05:14;;;;;;;14.15;7.25;;;;;;;17.79;100.00;101549.41;7390863;19;19926;-74
2022/08/23 00:07:45;;;;;;;11.88;6.90;;;;;;;17.74;100.00;101548.56;7391875;19;20125;-75
2022/08/23 00:10:17;;;;;;;14.18;7.53;;;;;;;17.72;100.00;101541.50;7392435;19;20034;-77
2022/08/23 00:12:48;;;;;;;14.38;7.15;;;;;;;17.69;100.00;101552.13;7394446;19;20018;-75
2022/08/23 00:15:20;;;;;;;14.20;7.13;;;;;;;17.71;100.00;101543.28;7394733;19;20020;-75
2022/08/23 00:17:53;;;;;;;13.77;6.65;;;;;;;17.65;100.00;101545.94;7396717;19;20014;-75
2022/08/23 00:20:23;;;;;;;12.90;6.38;;;;;;;17.65;100.00;101548.59;7394126;19;20010;-74
2022/08/23 00:22:53;;;;;;;14.32;7.05;;;;;;;17.61;100.00;101544.19;7394188;19;20014;-74
2022/08/23 00:25:23;;;;;;;11.85;6.90;;;;;;;17.58;100.00;101542.44;7393454;19;20010;-74
2022/08/23 00:27:53;;;;;;;16.30;6.65;;;;;;;17.57;100.00;101545.09;7393262;19;20024;-74
2022/08/23 00:30:23;;;;;;;14.13;6.28;;;;;;;17.55;100.00;101545.09;7391103;19;20295;-75
2022/08/23 00:32:56;;;;;;;12.43;7.05;;;;;;;17.52;100.00;101538.94;7387437;19;20074;-75
2022/08/23 00:35:27;;;;;;;14.52;6.55;;;;;;;17.50;100.00;101546.00;7385265;19;20049;-74
2022/08/23 00:37:59;;;;;;;15.93;7.50;;;;;;;17.50;100.00;101541.59;7387217;19;20486;-75
2022/08/23 00:40:53;;;;;;;12.15;6.18;;;;;;;17.48;100.00;101546.03;7384448;19;20024;-74
2022/08/23 00:49:12;;;;;;;12.98;6.22;;;;;;;17.49;100.00;101538.94;7385218;19;20011;-74
2022/08/23 00:51:48;;;;;;;14.63;6.85;;;;;;;17.49;100.00;101531.88;7380944;19;20295;-76
2022/08/23 00:54:23;;;;;;;13.48;6.28;;;;;;;17.53;100.00;101530.97;7374895;19;20014;-73
2022/08/23 00:56:55;;;;;;;13.45;6.43;;;;;;;17.60;100.00;101524.75;7381879;19;20018;-73
2022/08/23 00:59:28;;;;;;;12.35;6.75;;;;;;;17.63;100.00;101518.56;7385947;19;20023;-73
2022/08/23 01:01:58;;;;;;;12.77;6.50;;;;;;;17.68;100.00;101529.19;7383842;19;20483;-74
2022/08/23 01:04:43;;;;;;;16.25;7.53;;;;;;;17.71;100.00;101532.66;7384747;19;20531;-74
2022/08/23 01:07:18;;;;;;;13.98;7.25;;;;;;;17.74;100.00;101531.75;7384197;19;20035;-74
2022/08/23 01:09:53;;;;;;;12.82;7.03;;;;;;;17.75;100.00;101525.56;7382797;19;20014;-74
2022/08/23 01:12:30;;;;;;;10.35;6.07;;;;;;;17.78;100.00;101537.03;7384937;19;20475;-74
2022/08/23 01:15:08;;;;;;;18.02;7.45;;;;;;;17.78;100.00;101530.84;7384753;19;20016;-74
2022/08/23 01:17:42;;;;;;;12.05;7.07;;;;;;;17.79;100.00;101538.81;7383941;19;20014;-74
2022/08/23 01:20:20;;;;;;;12.65;6.22;;;;;;;17.80;100.00;101540.56;7383642;19;20018;-74
2022/08/23 01:23:04;;;;;;;13.90;7.25;;;;;;;17.83;100.00;101537.91;7383311;19;20013;-75
2022/08/23 01:25:39;;;;;;;11.73;6.47;;;;;;;17.85;100.00;101533.47;7380851;19;20080;-74
2022/08/23 01:28:11;;;;;;;11.95;6.40;;;;;;;17.88;100.00;101538.75;7384029;19;20010;-74
2022/08/23 01:30:45;;;;;;;15.43;7.03;;;;;;;17.91;100.00;101536.09;7380134;19;20015;-75
2022/08/23 01:33:18;;;;;;;14.82;6.70;;;;;;;17.95;100.00;101535.19;7374998;19;20019;-74
2022/08/23 01:35:53;;;;;;;12.93;6.68;;;;;;;17.97;100.00;101533.41;7384466;19;20007;-75
2022/08/23 01:38:28;;;;;;;18.67;7.20;;;;;;;17.99;100.00;101530.72;7385010;19;20014;-74
2022/08/23 01:41:08;;;;;;;12.18;6.55;;;;;;;18.02;100.00;101532.50;7377684;19;20055;-75
2022/08/23 01:43:40;;;;;;;13.98;7.30;;;;;;;18.01;100.00;101528.94;7384014;19;20003;-76
2022/08/23 01:46:12;;;;;;;12.87;7.67;;;;;;;18.01;100.00;101530.72;7382631;19;20531;-74
2022/08/23 01:48:44;;;;;;;14.60;7.22;;;;;;;18.04;100.00;101528.06;7379075;19;20319;-75
2022/08/23 01:51:16;;;;;;;13.23;7.47;;;;;;;18.04;100.00;101518.31;7381963;19;20015;-73
2022/08/23 01:53:48;;;;;;;13.73;6.72;;;;;;;18.07;100.00;101514.75;7375965;19;20010;-73
2022/08/23 01:56:21;;;;;;;16.73;7.20;;;;;;;18.09;100.00;101516.50;7377329;19;20036;-74
2022/08/23 01:59:08;;;;;;;13.75;7.57;;;;;;;18.11;100.00;101512.06;7376364;19;20472;-74
2022/08/23 02:01:39;;;;;;;14.05;7.40;;;;;;;18.15;100.00;101507.63;7380743;19;20280;-74
2022/08/23 02:04:09;;;;;;;13.52;8.10;;;;;;;18.16;100.00;101512.03;7377794;19;20014;-76
2022/08/23 02:06:39;;;;;;;12.88;7.55;;;;;;;18.19;100.00;101517.31;7375343;19;20014;-73
2022/08/23 02:09:09;;;;;;;15.40;7.22;;;;;;;18.21;100.00;101520.84;7378924;19;20562;-74
2022/08/23 02:11:50;;;;;;;11.57;6.70;;;;;;;18.23;100.00;101519.06;7380707;19;20007;-74
2022/08/23 02:14:22;;;;;;;11.45;6.40;;;;;;;18.24;100.00;101515.53;7377805;19;20011;-74
2022/08/23 02:16:54;;;;;;;12.02;8.00;;;;;;;18.26;100.00;101522.59;7379384;19;20039;-75
2022/08/23 02:19:42;;;;;;;14.80;7.85;;;;;;;18.26;100.00;101519.03;7380017;19;20015;-74
2022/08/23 02:22:14;;;;;;;17.40;7.65;;;;;;;18.27;100.00;101520.81;7380301;19;20014;-75
2022/08/23 02:24:53;;;;;;;16.35;7.95;;;;;;;18.26;100.00;101519.03;7377140;19;20064;-73
2022/08/23 02:27:32;;;;;;;13.88;7.55;;;;;;;18.29;100.00;101519.03;7379068;19;20041;-74
2022/08/23 02:30:36;;;;;;;12.88;7.35;;;;;;;18.31;100.00;101525.19;7375886;19;20013;-73
2022/08/23 02:33:30;;;;;;;12.75;7.28;;;;;;;18.33;100.00;101523.41;7375326;19;20046;-73
2022/08/23 02:36:17;;;;;;;16.02;8.07;;;;;;;18.34;100.00;101521.66;7377033;19;20110;-74
2022/08/23 02:38:53;;;;;;;13.73;7.57;;;;;;;18.38;100.00;101523.38;7377416;19;20017;-75
2022/08/23 02:41:30;;;;;;;17.45;8.23;;;;;;;18.39;100.00;101527.81;7377160;19;20022;-75
2022/08/23 02:44:14;;;;;;;17.25;8.25;;;;;;;18.39;100.00;101525.16;7373596;19;20015;-75
2022/08/23 02:46:44;;;;;;;14.40;7.50;;;;;;;18.38;100.00;101526.91;7378906;19;20508;-75
2022/08/23 02:49:15;;;;;;;12.95;7.25;;;;;;;18.39;100.00;101528.69;7365196;19;20332;-76
2022/08/23 02:51:48;;;;;;;15.80;8.00;;;;;;;18.40;100.00;101527.78;7378929;19;20041;-75
2022/08/23 02:54:18;;;;;;;13.77;8.07;;;;;;;18.41;100.00;101524.25;7371800;19;20011;-75
2022/08/23 02:56:48;;;;;;;14.73;7.95;;;;;;;18.43;100.00;101533.06;7376863;19;20014;-74
2022/08/23 02:59:21;;;;;;;13.63;7.18;;;;;;;18.44;100.00;101534.84;7379455;19;20028;-74
2022/08/23 03:01:52;;;;;;;14.57;7.70;;;;;;;18.44;100.00;101540.16;7376835;19;20570;-74
2022/08/23 03:04:22;;;;;;;16.67;8.68;;;;;;;18.46;100.00;101533.06;7379750;19;20439;-75
2022/08/23 03:06:51;;;;;;;14.98;8.32;;;;;;;18.50;100.00;101539.22;7375113;19;20044;-75
2022/08/23 03:09:21;;;;;;;16.23;9.07;;;;;;;18.52;100.00;101533.00;7376457;19;20049;-75
2022/08/23 03:11:51;;;;;;;15.27;8.20;;;;;;;18.56;100.00;101533.84;7380668;19;20022;-75
2022/08/23 03:14:26;;;;;;;16.65;9.00;;;;;;;18.56;100.00;101537.41;7377736;19;20010;-75
2022/08/23 03:16:57;;;;;;;21.48;9.73;;;;;;;18.56;100.00;101537.41;7377871;19;20473;-74
2022/08/23 03:19:30;;;;;;;18.13;9.73;;;;;;;18.55;100.00;101540.94;7380055;19;20022;-75
2022/08/23 03:22:02;;;;;;;20.55;9.32;;;;;;;18.57;100.00;101539.16;7379483;19;20021;-76
2022/08/23 03:24:32;;;;;;;15.65;8.93;;;;;;;18.60;100.00;101539.16;7376478;19;20040;-75
2022/08/23 03:27:25;;;;;;;16.15;8.35;;;;;;;18.60;100.00;101536.50;7380908;19;20640;-75
2022/08/23 03:30:21;;;;;;;17.08;8.48;;;;;;;18.61;100.00;101532.06;7377572;19;20027;-75
2022/08/23 03:33:28;;;;;;;15.85;8.32;;;;;;;18.61;100.00;101535.63;7377492;19;20014;-74
2022/08/23 03:36:42;;;;;;;15.32;8.90;;;;;;;18.63;100.00;101534.72;7384617;19;20011;-76
2022/08/23 03:39:54;;;;;;;19.73;9.23;;;;;;;18.60;100.00;101536.50;7386530;19;20006;-75
2022/08/23 03:42:35;;;;;;;15.98;9.48;;;;;;;18.58;100.00;101537.38;7384982;19;20511;-76
2022/08/23 03:45:09;;;;;;;17.30;8.93;;;;;;;18.58;100.00;101537.38;7388241;19;20048;-75
2022/08/23 03:47:39;;;;;;;19.15;8.38;;;;;;;18.57;100.00;101541.81;7385369;19;20039;-76
2022/08/23 03:50:09;;;;;;;15.70;9.10;;;;;;;18.55;100.00;101545.38;7381965;19;20014;-74
2022/08/23 03:52:40;;;;;;;16.48;9.18;;;;;;;18.53;100.00;101549.81;7370922;19;20030;-76
2022/08/23 03:55:10;;;;;;;12.50;8.02;;;;;;;18.52;100.00;101548.06;7376481;19;20006;-75
2022/08/23 03:57:40;;;;;;;15.23;8.63;;;;;;;18.49;100.00;101554.28;7374927;19;20010;-75
2022/08/23 04:00:17;;;;;;;13.88;7.95;;;;;;;18.44;100.00;101548.13;7376172;19;20086;-75
2022/08/23 04:02:49;;;;;;;13.68;7.90;;;;;;;18.42;100.00;101547.25;7374577;19;20010;-75
2022/08/23 04:05:29;;;;;;;13.20;7.32;;;;;;;18.38;100.00;101544.63;7377278;19;20013;-73
2022/08/23 04:11:51;;;;;;;14.77;7.80;;;;;;;18.24;100.00;101550.91;7376198;19;20014;-74
2022/08/23 04:14:41;;;;;;;15.82;7.75;;;;;;;18.15;100.00;101547.44;7370865;19;20026;-74
2022/08/23 04:20:27;;;;;;;15.77;7.32;;;;;;;18.06;100.00;101558.13;7376292;19;20018;-74
2022/08/23 04:23:09;;;;;;;13.05;7.68;;;;;;;18.02;100.00;101567.00;7375040;19;20006;-73
2022/08/23 04:26:02;;;;;;;;;;;;;;;;;;;;;
2022/08/23 04:29:21;;;;;;;14.80;6.97;;;;;;;17.93;100.00;101563.50;7372599;19;20019;-73
2022/08/23 04:32:13;;;;;;;15.45;7.32;;;;;;;17.87;100.00;101558.22;7381912;19;20032;-73
2022/08/23 04:35:08;;;;;;;13.15;7.40;;;;;;;17.81;100.00;101552.94;7379610;19;20015;-74
2022/08/23 04:38:15;;;;;;;10.80;7.10;;;;;;;17.78;100.00;101552.09;7381123;19;20464;-73
2022/08/23 04:44:12;;;;;;;15.07;8.15;;;;;;;17.71;100.00;101567.16;7380062;19;20498;-74
2022/08/23 04:46:55;;;;;;;14.45;7.28;;;;;;;17.69;100.00;101558.31;7385442;19;20049;-73
2022/08/23 04:49:38;;;;;;;16.10;8.68;;;;;;;17.68;100.00;101563.66;7385034;19;20006;-73
2022/08/23 04:52:51;;;;;;;13.50;8.93;;;;;;;17.67;100.00;101561.91;7380989;19;20025;-72
2022/08/23 04:55:25;;;;;;;13.60;7.85;;;;;;;17.64;100.00;101566.28;7382213;19;20019;-72
2022/08/23 05:01:09;;;;;;;15.27;8.73;;;;;;;17.65;100.00;101572.47;7383366;19;20022;-73
2022/08/23 05:04:11;;;;;;;17.70;8.63;;;;;;;17.64;100.00;101576.91;7380451;19;20006;-74
2022/08/23 05:09:55;;;;;;;17.23;8.00;;;;;;;17.64;100.00;101586.63;7379051;19;20507;-75
2022/08/23 05:12:27;;;;;;;17.00;9.38;;;;;;;17.62;100.00;101593.72;7380008;19;20014;-74
2022/08/23 05:14:57;;;;;;;16.23;7.60;;;;;;;17.61;100.00;101589.28;7383519;19;20010;-75
2022/08/23 05:17:27;;;;;;;18.48;8.60;;;;;;;17.60;100.00;101584.88;7378782;19;20029;-74
2022/08/23 05:19:57;;;;;;;14.48;8.00;;;;;;;17.61;100.00;101587.53;7376578;19;20014;-75
2022/08/23 05:22:35;;;;;;;15.93;8.10;;;;;;;17.59;100.00;101586.66;7379877;19;20006;-75
2022/08/23 05:25:12;;;;;;;14.30;7.97;;;;;;;17.58;100.00;101591.97;7378224;19;20045;-75
2022/08/23 05:27:42;;;;;;;14.63;7.80;;;;;;;17.57;100.00;101587.53;7372986;19;20018;-74
2022/08/23 05:30:15;;;;;;;13.80;8.85;;;;;;;17.57;100.00;101584.88;7376880;19;20118;-75
2022/08/23 05:32:45;;;;;;;14.68;8.38;;;;;;;17.60;100.00;101598.13;7378424;19;20074;-75
2022/08/23 05:35:14;;;;;;;12.45;7.78;;;;;;;17.61;100.00;101597.25;7380891;19;20086;-75
2022/08/23 05:37:44;;;;;;;16.92;8.75;;;;;;;17.62;100.00;101593.72;7379444;19;20018;-76
2022/08/23 05:40:17;;;;;;;17.10;7.53;;;;;;;17.63;100.00;101598.13;7378272;19;20010;-75
2022/08/23 05:42:47;;;;;;;15.82;8.75;;;;;;;17.63;100.00;101590.16;7379290;19;20015;-75
2022/08/23 05:45:17;;;;;;;15.68;8.60;;;;;;;17.65;100.00;101599.00;7383278;19;20017;-75
2022/08/23 05:47:52;;;;;;;15.57;8.27;;;;;;;17.68;100.00;101595.50;7378829;19;20011;-75
2022/08/23 05:50:24;;;;;;;19.40;9.05;;;;;;;17.75;100.00;101599.84;7376327;19;20479;-75
2022/08/23 05:52:54;;;;;;;17.92;10.48;;;;;;;17.98;100.00;101604.16;7373454;19;20006;-75
2022/08/23 06:02:40;;;;;;;16.90;9.63;;;;;;;19.10;100.00;101606.88;7380144;19;20017;-76
2022/08/23 06:05:12;;;;;;;18.48;9.88;;;;;;;19.38;100.00;101606.63;7383471;19;20014;-75
2022/08/23 06:07:42;;;;;;;19.35;10.13;;;;;;;19.67;100.00;101604.53;7381982;19;20015;-75
2022/08/23 06:10:12;;;;;;;17.58;9.55;;;;;;;19.95;100.00;101613.03;7379157;19;20014;-75
2022/08/23 06:12:44;;;;;;;21.00;10.13;;;;;;;20.21;100.00;101604.69;7378577;19;20019;-75
2022/08/23 06:15:17;;;;;;;17.25;10.07;;;;;;;20.50;100.00;101596.28;7376100;19;20094;-75
2022/08/23 06:17:48;;;;;;;21.23;10.73;;;;;;;20.69;100.00;101611.09;7378707;19;20041;-75
2022/08/23 07:04:37;;;;;;;10.40;6.35;;;;;;;24.75;100.00;101618.00;7371447;19;20013;-73
2022/08/23 07:07:08;;;;;;;12.82;5.97;;;;;;;24.92;100.00;101610.28;7372919;19;20036;-75
2022/08/23 07:17:15;;;;;;;12.27;5.82;;;;;;;25.08;100.00;101616.88;7381169;19;20010;-73
2022/08/23 07:23:42;;;;;;;11.38;5.50;;;;;;;25.43;100.00;101622.81;7376086;19;20501;-75
2022/08/23 07:26:17;;;;;;;10.38;6.30;;;;;;;25.57;100.00;101620.50;7376476;19;20015;-75
2022/08/23 07:28:47;;;;;;;10.65;5.75;;;;;;;25.77;100.00;101621.59;7371559;19;20019;-74
2022/08/23 07:31:21;;;;;;;11.43;4.65;;;;;;;25.79;97.28;101615.22;7378068;19;20018;-75
2022/08/23 07:33:52;;;;;;;8.85;5.38;;;;;;;26.11;97.52;101616.66;7377303;19;20109;-75
2022/08/23 07:36:29;;;;;;;12.27;5.93;;;;;;;26.08;96.60;101622.16;7370690;19;20364;-75
2022/08/23 07:38:59;;;;;;;9.52;5.10;;;;;;;26.56;96.48;101624.75;7370103;19;21278;-75
2022/08/23 07:41:32;;;;;;;13.00;4.90;;;;;;;26.61;93.10;101624.56;7372258;19;20149;-75
2022/08/23 07:44:08;;;;;;;10.75;6.25;;;;;;;26.80;91.22;101630.94;7365276;19;20022;-74
2022/08/23 07:46:41;;;;;;;10.57;5.43;;;;;;;27.00;90.93;101631.00;7370336;19;20180;-75
2022/08/23 07:49:13;;;;;;;13.43;5.57;;;;;;;26.88;91.13;101626.09;7370969;19;20006;-75
2022/08/23 07:51:48;;;;;;;10.90;4.97;;;;;;;26.96;90.19;101625.78;7376387;19;20797;-75
2022/08/23 07:54:21;;;;;;;7.70;3.90;;;;;;;27.08;88.68;101633.34;7366039;19;20044;-75
2022/08/23 07:56:51;;;;;;;9.20;4.28;;;;;;;27.42;87.05;101637.25;7368486;19;20014;-75
2022/08/23 07:59:20;;;;;;;10.90;4.90;;;;;;;27.06;85.53;101634.34;7372294;19;20018;-76
2022/08/23 08:01:50;;;;;;;9.48;4.68;;;;;;;27.23;86.16;101640.75;7369206;19;20027;-76
2022/08/23 08:04:27;;;;;;;10.07;4.55;;;;;;;27.36;84.62;101633.00;7380845;19;20031;-75
2022/08/23 08:07:00;;;;;;;8.35;3.97;;;;;;;27.78;83.19;101640.16;7377589;19;20023;-76
2022/08/23 08:09:49;;;;;;;11.93;4.70;;;;;;;27.40;82.18;101645.41;7383334;19;20120;-76
2022/08/23 08:12:19;;;;;;;9.25;4.40;;;;;;;27.76;78.18;101650.13;7379573;19;20034;-76
2022/08/23 08:14:49;;;;;;;10.07;4.10;;;;;;;28.27;80.07;101647.69;7383275;19;20015;-76
2022/08/23 08:17:19;;;;;;;10.02;4.25;;;;;;;28.04;77.16;101658.69;7379696;19;20023;-75
2022/08/23 08:19:55;;;;;;;8.05;3.92;;;;;;;28.08;80.29;101660.25;7380715;19;20046;-76
2022/08/23 08:22:28;;;;;;;9.30;4.30;;;;;;;28.07;79.55;101668.47;7378161;19;20023;-76
2022/08/23 08:24:57;;;;;;;11.77;4.47;;;;;;;27.70;81.44;101671.97;7380232;19;20014;-76
2022/08/23 08:27:35;;;;;;;10.85;4.63;;;;;;;27.63;82.73;101664.16;7376158;19;20637;-76
2022/08/23 08:30:10;;;;;;;9.48;3.97;;;;;;;28.32;80.86;101669.94;7378775;19;20017;-76
2022/08/23 08:32:41;;;;;;;9.70;4.28;;;;;;;28.22;78.45;101676.72;7377059;19;20443;-76
2022/08/23 08:35:18;;;;;;;11.60;3.90;;;;;;;28.40;79.95;101671.38;7378420;19;20108;-76
2022/08/23 08:37:51;;;;;;;9.05;4.18;;;;;;;27.14;82.92;101681.53;7377920;19;20035;-74
2022/08/23 08:40:39;;;;;;;9.27;4.40;;;;;;;27.64;81.95;101679.38;7382052;19;20044;-75
2022/08/23 08:43:25;;;;;;;9.00;4.07;;;;;;;28.08;81.41;101673.75;7383614;19;21664;-76
2022/08/23 08:46:06;;;;;;;10.60;4.50;;;;;;;27.81;78.21;101678.63;7383217;19;20043;-74
2022/08/23 08:48:43;;;;;;;9.65;4.10;;;;;;;27.80;82.21;101676.88;7378780;19;20007;-75
2022/08/23 08:51:27;;;;;;;10.90;4.68;;;;;;;27.36;82.19;101674.28;7375804;19;20014;-75
2022/08/23 08:54:07;;;;;;;7.90;4.05;;;;;;;27.45;83.19;101675.72;7366689;19;20482;-76
2022/08/23 08:56:42;;;;;;;9.02;3.72;;;;;;;27.41;84.43;101674.09;7374345;19;20336;-75
2022/08/23 08:59:20;;;;;;;9.68;3.75;;;;;;;26.94;85.33;101673.41;7378344;19;20526;-75
2022/08/23 09:01:51;;;;;;;7.30;4.20;;;;;;;27.03;85.59;101673.06;7380396;19;20014;-74
2022/08/23 09:04:22;;;;;;;8.77;3.97;;;;;;;27.18;84.53;101676.91;7379323;19;20010;-76
2022/08/23 09:06:59;;;;;;;9.57;3.95;;;;;;;27.34;85.29;101672.59;7372744;19;20341;-74
2022/08/23 09:09:54;;;;;;;9.18;3.95;;;;;;;26.97;87.94;101682.28;7373548;19;20016;-74
2022/08/23 09:12:36;;;;;;;9.05;4.10;;;;;;;27.04;85.52;101680.16;7377321;19;20024;-77
2022/08/23 09:15:22;;;;;;;8.55;4.03;;;;;;;26.65;87.08;101678.19;7384061;19;20137;-78
2022/08/23 09:17:55;;;;;;;8.57;4.13;;;;;;;26.41;90.71;101678.28;7381786;19;20018;-77
2022/08/23 09:20:30;;;;;;;11.98;4.30;;;;;;;26.52;92.33;101681.41;7387799;19;20377;-76
2022/08/23 09:23:11;;;;;;;7.15;3.65;;;;;;;26.65;90.57;101682.69;7384336;19;20014;-76
2022/08/23 09:25:52;;;;;;;;;;;;;;;26.83;90.88;101675.69;7383202;19;20439;-79
2022/08/23 09:28:23;;;;;;;8.02;3.40;;;;;;;27.25;87.88;101683.78;7384097;19;20222;-78
2022/08/23 09:30:57;;;;;;;8.27;3.65;;;;;;;27.27;88.05;101681.88;7386427;19;20041;-77
2022/08/23 09:33:38;;;;;;;6.88;3.25;;;;;;;27.49;85.17;101682.72;7393963;19;20027;-82
2022/08/23 09:36:17;;;;;;;6.75;3.40;;;;;;;27.39;85.17;101681.34;7393854;19;20010;-79
2022/08/23 09:38:56;;;;;;;8.52;3.30;;;;;;;27.99;86.89;101679.59;7393013;19;20047;-79
2022/08/23 09:41:42;;;;;;;9.27;3.40;;;;;;;28.37;82.28;101682.31;7393815;19;20522;-82
2022/08/23 09:44:31;;;;;;;9.27;3.58;;;;;;;28.92;78.74;101681.41;7380955;19;20036;-75
2022/08/23 09:47:13;;;;;;;9.40;3.70;;;;;;;27.80;83.42;101678.69;7377357;19;20500;-77
2022/08/23 09:49:46;;;;;;;6.00;3.15;;;;;;;28.58;81.35;101671.38;7374497;19;20099;-78
2022/08/23 09:52:31;;;;;;;7.95;3.60;;;;;;;28.41;81.70;101678.53;7379226;19;20330;-76
2022/08/23 09:55:05;;;;;;;7.80;3.00;;;;;;;29.01;78.71;101676.50;7383007;19;20030;-76
2022/08/23 09:57:41;;;;;;;6.90;2.88;;;;;;;29.06;75.98;101669.94;7381324;19;20430;-75
2022/08/23 10:00:27;;;;;;;10.60;3.58;;;;;;;29.46;68.58;101671.44;7378698;19;20808;-77
2022/08/23 10:03:21;;;;;;;7.22;3.00;;;;;;;29.56;70.04;101674.53;7380846;19;20043;-77
2022/08/23 10:05:52;;;;;;;;;;;;;;;29.47;66.46;101670.50;7384334;19;20014;-78
2022/08/23 10:08:32;;;;;;;6.53;3.42;;;;;;;29.63;65.55;101670.56;7381183;19;19982;-77
2022/08/23 10:11:18;;;;;;;7.32;3.30;;;;;;;29.31;63.51;101669.50;7378736;19;20014;-76
2022/08/23 10:13:51;;;;;;;;;;;;;;;29.15;66.59;101666.72;7382829;19;20014;-78
2022/08/23 10:16:37;;;;;;;8.00;3.63;;;;;;;29.01;65.65;101663.00;7382268;19;19914;-75
2022/08/23 10:19:17;;;;;;;5.63;2.88;;;;;;;29.21;66.91;101670.94;7377192;19;20087;-75
2022/08/23 10:21:56;;;;;;;6.53;3.10;;;;;;;29.15;65.84;101666.72;7380178;19;20047;-77
2022/08/23 10:24:39;;;;;;;7.20;3.25;;;;;;;29.55;64.00;101665.56;7379830;19;20015;-79
2022/08/23 10:30:13;;;;;;;7.32;3.00;;;;;;;29.57;63.11;101658.25;7382281;19;19914;-78
2022/08/23 10:33:03;;;;;;;8.63;3.10;;;;;;;29.77;62.85;101653.59;7373184;19;20017;-75
2022/08/23 10:35:44;;;;;;;8.20;3.35;;;;;;;29.59;63.99;101650.91;7381572;19;20011;-74
2022/08/23 10:38:39;;;;;;;5.05;2.80;;;;;;;29.93;63.55;101657.22;7375470;19;20646;-74
2022/08/23 10:41:35;;;;;;;9.23;3.22;;;;;;;29.45;65.21;101658.00;7360315;19;20017;-74
2022/08/23 10:44:24;;;;;;;4.93;3.03;;;;;;;29.71;64.17;101671.03;7374462;19;20598;-75
2022/08/23 10:47:14;;;;;;;6.90;3.08;;;;;;;29.43;63.97;101663.50;7376523;19;20121;-73
2022/08/23 10:49:45;;;;;;;8.88;2.92;;;;;;;30.21;63.31;101657.44;7373954;19;21951;-73
2022/08/23 10:52:20;;;;;;;6.30;2.83;;;;;;;30.64;61.35;101656.88;7375718;19;20019;-72
2022/08/23 10:55:05;;;;;;;8.10;2.92;;;;;;;30.45;61.94;101662.44;7380235;19;20023;-73
2022/08/23 10:57:38;;;;;;;9.25;3.25;;;;;;;29.76;62.20;101659.97;7376476;19;20010;-74
2022/08/23 11:00:13;;;;;;;6.95;3.20;;;;;;;30.03;62.16;101661.19;7385003;19;20018;-74
2022/08/23 11:02:57;;;;;;;6.07;2.70;;;;;;;30.10;61.60;101662.59;7385357;19;20011;-71
2022/08/23 11:05:31;;;;;;;5.82;2.90;;;;;;;29.73;62.17;101660.13;7387345;19;20018;-72
2022/08/23 11:08:08;;;;;;;6.15;2.80;;;;;;;29.85;63.68;101652.22;7386111;19;20047;-73
2022/08/23 11:10:48;;;;;;;11.15;3.45;;;;;;;29.85;63.09;101657.63;7384574;19;20014;-72
2022/08/23 11:13:28;;;;;;;7.70;2.90;;;;;;;29.81;61.86;101663.28;7386259;19;20027;-71
2022/08/23 11:16:07;;;;;;;6.25;2.65;;;;;;;30.26;61.61;101671.59;7385166;19;20010;-75
2022/08/23 11:18:45;;;;;;;7.22;3.00;;;;;;;30.08;61.37;101658.22;7378355;19;20414;-75
2022/08/23 11:21:48;;;;;;;6.65;2.60;;;;;;;30.68;59.77;101659.31;7379566;19;20027;-74
2022/08/23 11:24:35;;;;;;;6.82;2.95;;;;;;;30.38;59.84;101658.31;7380533;19;20023;-74
2022/08/23 11:27:08;;;;;;;5.95;2.80;;;;;;;30.10;60.18;101667.13;7376881;19;20023;-73
2022/08/23 11:29:43;;;;;;;8.23;3.60;;;;;;;30.18;61.88;101665.72;7376966;19;20015;-74
2022/08/23 11:32:41;;;;;;;4.55;2.95;;;;;;;30.49;61.03;101664.00;7376818;19;20002;-75
2022/08/23 11:35:47;;;;;;;6.75;2.80;;;;;;;30.29;62.02;101672.38;7376094;19;20011;-72
2022/08/23 11:38:54;;;;;;;6.35;3.03;;;;;;;28.95;64.48;101680.38;7380423;19;20006;-73
2022/08/23 11:41:29;;;;;;;7.18;2.80;;;;;;;29.55;64.45;101676.38;7380324;19;20014;-73
2022/08/23 11:44:20;;;;;;;7.20;3.38;;;;;;;29.36;63.46;101675.53;7378599;19;20030;-72
2022/08/23 11:47:04;;;;;;;8.27;3.13;;;;;;;29.71;64.84;101678.25;7382199;19;20018;-72
2022/08/23 11:50:03;;;;;;;6.47;2.67;;;;;;;29.54;63.78;101677.31;7379316;19;20039;-73
2022/08/23 11:53:06;;;;;;;5.00;2.88;;;;;;;29.62;64.87;101682.31;7378766;19;20504;-73
2022/08/23 11:56:05;;;;;;;6.40;3.10;;;;;;;29.39;64.69;101685.31;7379769;19;20333;-74
2022/08/23 11:59:02;;;;;;;8.20;3.50;;;;;;;29.49;66.05;101676.69;7384956;19;20003;-74
2022/08/23 12:01:42;;;;;;;7.28;3.20;;;;;;;29.96;62.81;101662.47;7380241;19;20019;-74
2022/08/23 12:04:23;;;;;;;9.40;3.63;;;;;;;29.75;63.09;101675.31;7378345;19;20015;-72
2022/08/23 12:07:01;;;;;;;8.20;3.53;;;;;;;29.63;64.87;101675.97;7378720;19;20006;-72
2022/08/23 12:09:58;;;;;;;8.70;3.35;;;;;;;29.30;66.48;101670.47;7376488;19;20590;-72
2022/08/23 12:12:41;;;;;;;8.13;3.83;;;;;;;28.94;65.41;101673.25;7384407;19;20015;-76
2022/08/23 12:15:18;;;;;;;10.73;4.25;;;;;;;29.02;65.48;101680.97;7387818;19;20007;-73
2022/08/23 12:18:24;;;;;;;10.25;4.88;;;;;;;28.85;65.88;101679.97;7385737;19;20326;-75
2022/08/23 12:21:03;;;;;;;8.82;3.80;;;;;;;29.32;66.94;101679.38;7380573;19;20011;-73
2022/08/23 12:23:45;;;;;;;11.43;5.43;;;;;;;29.05;66.10;101675.41;7381087;19;20007;-75
2022/08/23 12:26:26;;;;;;;8.45;4.30;;;;;;;29.20;67.33;101680.00;7387049;19;20014;-73
2022/08/23 12:29:04;;;;;;;9.85;4.70;;;;;;;28.98;67.21;101674.84;7387231;19;20028;-74
2022/08/23 12:31:40;;;;;;;11.73;5.40;;;;;;;28.96;68.10;101683.00;7383091;19;20014;-76
2022/08/23 12:34:24;;;;;;;11.18;5.25;;;;;;;29.11;67.82;101680.50;7384672;19;20547;-72
2022/08/23 12:37:06;;;;;;;11.63;5.22;;;;;;;28.84;68.31;101680.94;7387317;19;20085;-72
2022/08/23 12:39:40;;;;;;;10.07;4.85;;;;;;;28.62;68.18;101682.91;7385356;19;20035;-77
2022/08/23 12:42:21;;;;;;;12.03;4.97;;;;;;;28.67;69.64;101679.97;7386220;19;20022;-78
2022/08/23 12:45:13;;;;;;;12.13;6.22;;;;;;;28.69;68.89;101680.78;7384680;19;20014;-74
2022/08/23 12:47:46;;;;;;;11.63;4.75;;;;;;;28.80;69.16;101676.59;7381513;19;20006;-75
2022/08/23 12:53:44;;;;;;;14.95;6.43;;;;;;;28.72;73.00;101684.19;7377556;19;20018;-75
2022/08/23 12:56:19;;;;;;;10.85;5.80;;;;;;;28.05;79.25;101678.44;7384991;19;20011;-75
2022/08/23 12:58:56;;;;;;;11.90;5.78;;;;;;;28.84;77.29;101683.63;7385039;19;20010;-74
2022/08/23 13:01:47;;;;;;;14.38;5.75;;;;;;;28.44;80.53;101678.38;7381359;19;20014;-77
2022/08/23 13:04:27;;;;;;;7.05;3.83;;;;;;;28.80;83.11;101676.59;7381567;19;20014;-76
2022/08/23 13:07:12;;;;;;;10.18;4.80;;;;;;;28.96;82.33;101683.00;7381166;19;20354;-75
2022/08/23 13:09:45;;;;;;;10.75;4.55;;;;;;;29.28;78.96;101683.19;7383991;19;20070;-78
2022/08/23 13:12:28;;;;;;;11.68;5.50;;;;;;;28.80;81.12;101692.78;7383331;19;20326;-78
2022/08/23 13:15:03;;;;;;;10.18;4.80;;;;;;;28.83;82.71;101684.56;7378603;19;20011;-79
2022/08/23 13:17:39;;;;;;;12.10;6.28;;;;;;;28.92;82.81;101685.94;7374474;19;20026;-74
2022/08/23 13:20:18;;;;;;;10.98;5.72;;;;;;;28.63;83.05;101680.13;7378707;19;20014;-73
2022/08/23 13:23:00;;;;;;;11.65;6.00;;;;;;;29.28;79.72;101670.53;7384327;19;20020;-74
2022/08/23 13:25:32;;;;;;;12.52;5.90;;;;;;;29.56;78.40;101671.84;7382222;19;20015;-74
2022/08/23 13:28:09;;;;;;;14.82;7.82;;;;;;;29.23;76.90;101669.03;7382141;19;20014;-73
2022/08/23 13:31:10;;;;;;;11.27;7.78;;;;;;;29.13;77.27;101670.44;7384047;19;20190;-74
2022/08/23 13:33:40;;;;;;;11.20;6.53;;;;;;;29.04;78.41;101668.25;7383689;19;20463;-74
2022/08/23 13:36:14;;;;;;;12.88;6.43;;;;;;;29.24;79.33;101660.84;7382920;19;20125;-73
2022/08/23 13:38:45;;;;;;;13.65;7.55;;;;;;;28.95;76.80;101665.06;7381202;19;20424;-73